createdAt,value
2022-09-23T00:00:49.961Z,5.30
2022-09-23T00:06:03.929Z,3.58
2022-09-23T00:11:12.439Z,2.60
2022-09-23T00:16:17.844Z,3.97
2022-09-23T00:21:22.025Z,1.60
2022-09-23T00:26:24.785Z,1.65
2022-09-23T00:31:27.840Z,2.72
2022-09-23T00:36:32.663Z,3.35
2022-09-23T00:41:35.819Z,6.68
2022-09-23T00:46:44.183Z,4.90
2022-09-23T00:51:55.007Z,7.47
2022-09-23T00:57:00.361Z,1.88
2022-09-23T01:02:03.820Z,2.50
2022-09-23T01:07:06.457Z,3.03
2022-09-23T01:12:30.275Z,2.67
2022-09-23T01:17:41.342Z,6.90
2022-09-23T01:23:12.559Z,4.38
2022-09-23T01:28:34.127Z,10.68
2022-09-23T01:33:48.077Z,4.45
2022-09-23T01:39:22.881Z,4.43
2022-09-23T01:45:07.649Z,3.70
2022-09-23T01:50:40.417Z,10.23
2022-09-23T01:55:49.674Z,2.38
2022-09-23T02:01:07.812Z,14.57
2022-09-23T02:06:36.377Z,7.70
2022-09-23T02:11:43.254Z,16.92
2022-09-23T02:16:49.240Z,8.20
2022-09-23T02:21:59.750Z,6.35
2022-09-23T02:27:30.831Z,8.18
2022-09-23T02:32:53.861Z,5.00
2022-09-23T02:38:20.757Z,7.03
2022-09-23T02:43:34.464Z,3.28
2022-09-23T02:48:42.224Z,3.67
2022-09-23T02:53:46.333Z,3.75
2022-09-23T02:58:54.832Z,2.90
2022-09-23T03:04:18.864Z,4.18
2022-09-23T03:09:37.378Z,18.00
2022-09-23T03:15:04.476Z,6.75
2022-09-23T03:20:21.372Z,3.80
2022-09-23T03:25:26.622Z,4.32
2022-09-23T03:30:30.547Z,4.43
2022-09-23T03:35:56.228Z,2.25
2022-09-23T03:41:03.428Z,10.00
2022-09-23T03:46:07.619Z,3.08
2022-09-23T03:51:22.616Z,5.95
2022-09-23T03:56:25.100Z,16.15
2022-09-23T04:01:27.522Z,8.55
2022-09-23T04:06:29.894Z,7.03
2022-09-23T04:11:32.283Z,10.13
2022-09-23T04:16:34.725Z,19.38
2022-09-23T04:21:37.429Z,14.00
2022-09-23T04:26:40.715Z,17.17
2022-09-23T04:31:43.258Z,19.33
2022-09-23T04:36:47.139Z,13.63
2022-09-23T04:41:49.589Z,12.90
2022-09-23T04:46:52.246Z,16.27
2022-09-23T04:51:54.814Z,9.35
2022-09-23T04:56:57.247Z,15.52
2022-09-23T05:01:59.792Z,18.73
2022-09-23T05:07:03.517Z,11.38
2022-09-23T05:12:06.554Z,18.05
2022-09-23T05:17:15.054Z,15.52
2022-09-23T05:22:17.374Z,16.88
2022-09-23T05:27:20.846Z,14.05
2022-09-23T05:32:23.414Z,31.80
2022-09-23T05:37:26.237Z,22.23
2022-09-23T05:42:29.089Z,16.08
2022-09-23T05:47:31.378Z,24.67
2022-09-23T05:52:35.324Z,21.52
2022-09-23T05:57:37.873Z,14.13
2022-09-23T06:02:40.505Z,14.50
2022-09-23T06:07:42.921Z,18.92
2022-09-23T06:12:45.546Z,19.00
2022-09-23T06:17:51.138Z,17.17
2022-09-23T06:22:55.616Z,9.98
2022-09-23T06:27:59.715Z,21.98
2022-09-23T06:33:02.446Z,13.60
2022-09-23T06:38:07.607Z,11.05
2022-09-23T06:43:10.014Z,5.00
2022-09-23T06:48:12.624Z,4.18
2022-09-23T06:53:14.942Z,4.05
2022-09-23T06:58:17.205Z,12.52
2022-09-23T07:03:19.535Z,6.45
2022-09-23T07:08:21.919Z,10.23
2022-09-23T07:13:24.737Z,8.55
2022-09-23T07:18:27.922Z,3.78
2022-09-23T07:23:30.233Z,6.88
2022-09-23T07:28:32.764Z,7.65
2022-09-23T07:33:45.071Z,3.35
2022-09-23T07:38:48.001Z,9.48
2022-09-23T07:43:51.102Z,5.00
2022-09-23T07:48:53.894Z,11.05
2022-09-23T07:53:57.205Z,2.95
2022-09-23T07:59:04.291Z,1.83
2022-09-23T08:04:13.662Z,2.10
2022-09-23T08:09:17.884Z,3.88
2022-09-23T08:14:20.309Z,2.28
2022-09-23T08:19:22.587Z,6.50
2022-09-23T08:24:26.999Z,4.55
2022-09-23T08:29:29.409Z,5.65
2022-09-23T08:34:31.742Z,3.38
2022-09-23T08:39:34.018Z,3.10
2022-09-23T08:45:29.680Z,2.17
2022-09-23T08:50:47.078Z,7.60
2022-09-23T08:55:52.386Z,3.88
2022-09-23T09:01:19.933Z,2.75
2022-09-23T09:06:27.089Z,3.08
2022-09-23T09:11:39.539Z,3.17
2022-09-23T09:17:00.126Z,7.55
2022-09-23T09:22:09.848Z,2.67
2022-09-23T09:27:13.793Z,3.17
2022-09-23T09:32:36.788Z,7.53
2022-09-23T09:37:50.043Z,3.50
2022-09-23T09:42:52.521Z,4.88
2022-09-23T09:48:04.040Z,1.42
2022-09-23T09:53:22.357Z,1.30
2022-09-23T09:58:42.130Z,4.40
2022-09-23T10:03:49.460Z,4.32
2022-09-23T10:09:12.828Z,6.15
2022-09-23T10:14:18.643Z,1.73
2022-09-23T10:19:27.877Z,1.50
2022-09-23T10:24:32.742Z,1.70
2022-09-23T10:29:47.243Z,1.45
2022-09-23T10:34:57.603Z,2.50
2022-09-23T10:40:20.360Z,4.07
2022-09-23T10:45:46.437Z,2.45
2022-09-23T10:50:54.832Z,2.28
2022-09-23T10:56:21.021Z,8.60
2022-09-23T11:01:41.363Z,4.35
2022-09-23T11:07:07.853Z,19.75
2022-09-23T11:12:38.683Z,4.57
2022-09-23T11:17:49.757Z,6.45
2022-09-23T11:23:00.825Z,3.22
2022-09-23T11:28:20.845Z,3.95
2022-09-23T11:33:41.144Z,1.50
2022-09-23T11:38:47.169Z,1.52
2022-09-23T11:43:56.586Z,1.52
2022-09-23T11:49:07.921Z,2.00
2022-09-23T11:54:20.689Z,1.88
2022-09-23T11:59:41.422Z,2.40
2022-09-23T12:04:56.912Z,1.13
2022-09-23T12:10:06.018Z,0.80
2022-09-23T12:15:32.544Z,2.05
2022-09-23T12:21:03.767Z,2.97
2022-09-23T12:26:10.142Z,3.17
2022-09-23T12:31:16.067Z,1.25
2022-09-23T12:36:27.509Z,2.65
2022-09-23T12:41:38.011Z,1.63
2022-09-23T12:46:45.081Z,1.67
2022-09-23T12:52:26.456Z,0.70
2022-09-23T12:57:35.180Z,1.58
2022-09-23T13:12:53.497Z,2.13
2022-09-23T13:18:23.595Z,4.15
2022-09-23T13:23:33.462Z,1.23
2022-09-23T13:28:57.268Z,2.38
2022-09-23T13:34:08.538Z,1.65
2022-09-23T13:39:17.323Z,0.68
2022-09-23T13:44:24.061Z,1.52
2022-09-23T13:49:34.533Z,3.47
2022-09-23T13:54:59.784Z,1.52
2022-09-23T14:00:24.433Z,2.15
2022-09-23T14:05:38.970Z,1.40
2022-09-23T14:10:50.078Z,0.80
2022-09-23T14:15:55.927Z,1.88
2022-09-23T14:20:58.396Z,3.47
2022-09-23T14:26:03.218Z,2.83
2022-09-23T14:31:06.023Z,1.70
2022-09-23T14:36:38.150Z,5.47
2022-09-23T14:41:49.766Z,2.20
2022-09-23T14:47:01.034Z,3.53
2022-09-23T14:52:07.455Z,4.55
2022-09-23T14:57:31.926Z,5.25
2022-09-23T15:08:45.256Z,2.45
2022-09-23T15:13:52.449Z,1.27
2022-09-23T15:19:01.294Z,1.48
2022-09-23T15:24:03.728Z,5.75
2022-09-23T15:29:10.223Z,0.90
2022-09-23T15:34:12.728Z,4.10
2022-09-23T15:39:15.453Z,6.65
2022-09-23T15:44:29.951Z,1.05
2022-09-23T15:49:47.513Z,2.17
2022-09-23T15:54:50.145Z,2.03
2022-09-23T15:59:58.866Z,4.20
2022-09-23T16:05:08.365Z,3.25
2022-09-23T16:10:15.352Z,3.55
2022-09-23T16:15:21.453Z,6.55
2022-09-23T16:20:24.379Z,8.60
2022-09-23T16:25:30.393Z,2.30
2022-09-23T16:30:34.481Z,14.55
2022-09-23T16:35:40.332Z,10.07
2022-09-23T16:40:47.023Z,2.38
2022-09-23T16:45:49.940Z,5.97
2022-09-23T16:50:54.546Z,1.08
2022-09-23T16:55:59.393Z,3.75
2022-09-23T17:01:20.659Z,5.82
2022-09-23T17:06:24.393Z,2.00
2022-09-23T17:11:34.154Z,10.65
2022-09-23T17:16:37.078Z,8.30
2022-09-23T17:21:45.503Z,6.20
2022-09-23T17:26:52.152Z,11.50
2022-09-23T17:31:57.162Z,4.72
2022-09-23T17:36:59.732Z,6.15
2022-09-23T17:42:02.211Z,4.95
2022-09-23T17:47:06.793Z,5.45
2022-09-23T17:52:09.399Z,4.43
2022-09-23T17:57:14.133Z,15.52
2022-09-23T18:02:19.535Z,7.70
2022-09-23T18:07:24.146Z,10.45
2022-09-23T18:12:30.793Z,7.40
2022-09-23T18:17:35.463Z,5.68
2022-09-23T18:22:38.046Z,9.95
2022-09-23T18:27:40.790Z,11.50
2022-09-23T18:32:47.738Z,16.48
2022-09-23T18:38:19.504Z,13.60
2022-09-23T18:43:25.715Z,13.70
2022-09-23T18:48:49.758Z,17.58
2022-09-23T18:53:58.159Z,10.43
2022-09-23T18:59:01.242Z,17.42
2022-09-23T19:04:08.957Z,15.82
2022-09-23T19:09:12.564Z,16.58
2022-09-23T19:14:18.784Z,12.55
2022-09-23T19:19:22.680Z,11.55
2022-09-23T19:24:25.423Z,10.85
2022-09-23T19:29:28.802Z,17.38
2022-09-23T19:34:38.575Z,5.90
2022-09-23T19:39:41.268Z,4.82
2022-09-23T19:44:44.920Z,15.25
2022-09-23T19:49:49.250Z,8.80
2022-09-23T19:54:53.087Z,9.45
2022-09-23T19:59:58.654Z,11.40
2022-09-23T20:05:02.459Z,6.07
2022-09-23T20:10:05.379Z,9.35
2022-09-23T20:15:08.223Z,5.85
2022-09-23T20:20:13.266Z,10.30
2022-09-23T20:25:15.573Z,10.32
2022-09-23T20:30:18.263Z,11.35
2022-09-23T20:35:20.790Z,7.60
2022-09-23T20:40:23.694Z,12.95
2022-09-23T20:45:26.608Z,13.73
2022-09-23T20:50:30.850Z,26.00
2022-09-23T20:55:37.172Z,20.65
2022-09-23T21:00:40.058Z,30.17
2022-09-23T21:05:49.007Z,29.88
2022-09-23T21:10:58.838Z,31.97
2022-09-23T21:16:05.536Z,50.47
2022-09-23T21:21:08.634Z,38.00
2022-09-23T21:26:20.317Z,40.00
2022-09-23T21:31:26.198Z,28.30
2022-09-23T21:36:34.406Z,15.55
2022-09-23T21:41:37.758Z,13.07
2022-09-23T21:46:41.869Z,15.05
2022-09-23T21:51:44.511Z,20.90
2022-09-23T21:56:46.932Z,17.50
2022-09-23T22:01:54.031Z,7.68
2022-09-23T22:06:57.848Z,13.98
2022-09-23T22:12:05.738Z,22.33
2022-09-23T22:17:11.878Z,12.90
2022-09-23T22:22:16.977Z,22.65
2022-09-23T22:27:20.294Z,8.98
2022-09-23T22:32:35.675Z,11.48
2022-09-23T22:37:38.169Z,9.48
2022-09-23T22:42:42.815Z,20.58
2022-09-23T22:47:46.587Z,5.07
2022-09-23T22:52:49.164Z,11.50
2022-09-23T22:57:52.156Z,10.60
2022-09-23T23:02:55.099Z,7.15
2022-09-23T23:07:58.072Z,6.97
2022-09-23T23:13:00.421Z,9.27
2022-09-23T23:18:02.888Z,9.80
2022-09-23T23:23:06.058Z,21.27
2022-09-23T23:28:08.442Z,35.78
2022-09-23T23:33:10.900Z,27.52
2022-09-23T23:38:13.599Z,6.07
2022-09-23T23:43:16.095Z,13.48
2022-09-23T23:48:19.933Z,6.05
2022-09-23T23:53:27.235Z,13.35
2022-09-23T23:58:30.177Z,11.23
